sensor_id;sensor_type;location;lat;lon;timestamp;temperature;humidity
10431;DHT22;5262;59.958;17.726;2024-01-06T00:02:16;-10.50;99.90
10431;DHT22;5262;59.958;17.726;2024-01-06T00:04:42;-10.50;99.90
10431;DHT22;5262;59.958;17.726;2024-01-06T00:07:07;-10.50;99.90
10431;DHT22;5262;59.958;17.726;2024-01-06T00:09:33;-10.50;99.90
10431;DHT22;5262;59.958;17.726;2024-01-06T00:11:59;-10.50;99.90
10431;DHT22;5262;59.958;17.726;2024-01-06T00:14:24;-10.50;99.90
10431;DHT22;5262;59.958;17.726;2024-01-06T00:16:50;-10.50;99.90
10431;DHT22;5262;59.958;17.726;2024-01-06T00:19:16;-10.50;99.90
10431;DHT22;5262;59.958;17.726;2024-01-06T00:21:43;-10.60;99.90
10431;DHT22;5262;59.958;17.726;2024-01-06T00:24:09;-10.60;99.90
10431;DHT22;5262;59.958;17.726;2024-01-06T00:26:34;-10.60;99.90
10431;DHT22;5262;59.958;17.726;2024-01-06T00:29:00;-10.60;99.90
10431;DHT22;5262;59.958;17.726;2024-01-06T00:31:25;-10.70;99.90
10431;DHT22;5262;59.958;17.726;2024-01-06T00:33:51;-10.70;99.90
10431;DHT22;5262;59.958;17.726;2024-01-06T00:36:17;-10.70;99.90
10431;DHT22;5262;59.958;17.726;2024-01-06T00:38:42;-10.70;99.90
10431;DHT22;5262;59.958;17.726;2024-01-06T00:41:08;-10.70;99.90
10431;DHT22;5262;59.958;17.726;2024-01-06T00:43:34;-10.80;99.90
10431;DHT22;5262;59.958;17.726;2024-01-06T00:45:59;-10.80;99.90
10431;DHT22;5262;59.958;17.726;2024-01-06T00:48:25;-10.80;99.90
10431;DHT22;5262;59.958;17.726;2024-01-06T00:50:50;-10.90;99.90
10431;DHT22;5262;59.958;17.726;2024-01-06T00:53:16;-10.90;99.90
10431;DHT22;5262;59.958;17.726;2024-01-06T00:55:42;-11.00;99.90
10431;DHT22;5262;59.958;17.726;2024-01-06T00:58:07;-11.00;99.90
10431;DHT22;5262;59.958;17.726;2024-01-06T01:00:34;-11.00;99.90
10431;DHT22;5262;59.958;17.726;2024-01-06T01:02:59;-11.00;99.90
10431;DHT22;5262;59.958;17.726;2024-01-06T01:05:25;-11.00;99.90
10431;DHT22;5262;59.958;17.726;2024-01-06T01:07:51;-11.00;99.90
10431;DHT22;5262;59.958;17.726;2024-01-06T01:10:16;-10.90;99.90
10431;DHT22;5262;59.958;17.726;2024-01-06T01:12:42;-10.90;99.90
10431;DHT22;5262;59.958;17.726;2024-01-06T01:15:08;-10.90;99.90
10431;DHT22;5262;59.958;17.726;2024-01-06T01:17:33;-10.90;99.90
10431;DHT22;5262;59.958;17.726;2024-01-06T01:19:59;-11.00;99.90
10431;DHT22;5262;59.958;17.726;2024-01-06T01:22:25;-11.00;99.90
10431;DHT22;5262;59.958;17.726;2024-01-06T01:24:50;-11.00;99.90
10431;DHT22;5262;59.958;17.726;2024-01-06T01:27:16;-11.00;99.90
10431;DHT22;5262;59.958;17.726;2024-01-06T01:29:42;-11.00;99.90
10431;DHT22;5262;59.958;17.726;2024-01-06T01:32:07;-11.00;99.90
10431;DHT22;5262;59.958;17.726;2024-01-06T01:34:33;-11.00;99.90
10431;DHT22;5262;59.958;17.726;2024-01-06T01:36:59;-11.00;99.90
10431;DHT22;5262;59.958;17.726;2024-01-06T01:39:25;-10.90;99.90
10431;DHT22;5262;59.958;17.726;2024-01-06T01:41:51;-10.90;99.90
10431;DHT22;5262;59.958;17.726;2024-01-06T01:44:16;-10.90;99.90
10431;DHT22;5262;59.958;17.726;2024-01-06T01:46:42;-10.90;99.90
10431;DHT22;5262;59.958;17.726;2024-01-06T01:49:08;-11.00;99.90
10431;DHT22;5262;59.958;17.726;2024-01-06T01:51:34;-11.00;99.90
10431;DHT22;5262;59.958;17.726;2024-01-06T01:54:05;-11.10;99.90
10431;DHT22;5262;59.958;17.726;2024-01-06T01:56:31;-11.10;99.90
10431;DHT22;5262;59.958;17.726;2024-01-06T01:59:12;-11.10;99.90
10431;DHT22;5262;59.958;17.726;2024-01-06T02:01:41;-11.10;99.90
10431;DHT22;5262;59.958;17.726;2024-01-06T02:04:08;-11.10;99.90
10431;DHT22;5262;59.958;17.726;2024-01-06T02:06:33;-11.20;99.90
10431;DHT22;5262;59.958;17.726;2024-01-06T02:08:59;-11.20;99.90
10431;DHT22;5262;59.958;17.726;2024-01-06T02:11:25;-11.20;99.90
10431;DHT22;5262;59.958;17.726;2024-01-06T02:13:50;-11.30;99.90
10431;DHT22;5262;59.958;17.726;2024-01-06T02:16:16;-11.30;99.90
10431;DHT22;5262;59.958;17.726;2024-01-06T02:18:42;-11.30;99.90
10431;DHT22;5262;59.958;17.726;2024-01-06T02:21:08;-11.30;99.90
10431;DHT22;5262;59.958;17.726;2024-01-06T02:23:36;-11.30;99.90
10431;DHT22;5262;59.958;17.726;2024-01-06T02:26:02;-11.40;99.90
10431;DHT22;5262;59.958;17.726;2024-01-06T02:28:27;-11.30;99.90
10431;DHT22;5262;59.958;17.726;2024-01-06T02:30:53;-11.40;99.90
10431;DHT22;5262;59.958;17.726;2024-01-06T02:33:19;-11.50;99.90
10431;DHT22;5262;59.958;17.726;2024-01-06T02:35:49;-11.50;99.90
10431;DHT22;5262;59.958;17.726;2024-01-06T02:38:15;-11.50;99.90
10431;DHT22;5262;59.958;17.726;2024-01-06T02:40:41;-11.50;99.90
10431;DHT22;5262;59.958;17.726;2024-01-06T02:43:08;-11.60;99.90
10431;DHT22;5262;59.958;17.726;2024-01-06T02:45:34;-11.60;99.90
10431;DHT22;5262;59.958;17.726;2024-01-06T02:47:59;-11.60;99.90
10431;DHT22;5262;59.958;17.726;2024-01-06T02:50:25;-11.60;99.90
10431;DHT22;5262;59.958;17.726;2024-01-06T02:52:50;-11.60;99.90
10431;DHT22;5262;59.958;17.726;2024-01-06T02:55:16;-11.60;99.90
10431;DHT22;5262;59.958;17.726;2024-01-06T02:57:41;-11.50;99.90
10431;DHT22;5262;59.958;17.726;2024-01-06T03:00:08;-11.50;99.90
10431;DHT22;5262;59.958;17.726;2024-01-06T03:02:34;-11.50;99.90
10431;DHT22;5262;59.958;17.726;2024-01-06T03:05:01;-11.50;99.90
10431;DHT22;5262;59.958;17.726;2024-01-06T03:07:27;-11.50;99.90
10431;DHT22;5262;59.958;17.726;2024-01-06T03:09:52;-11.60;99.90
10431;DHT22;5262;59.958;17.726;2024-01-06T03:12:18;-11.60;99.90
10431;DHT22;5262;59.958;17.726;2024-01-06T03:14:44;-11.60;99.90
10431;DHT22;5262;59.958;17.726;2024-01-06T03:17:09;-11.70;99.90
10431;DHT22;5262;59.958;17.726;2024-01-06T03:19:39;-11.70;99.90
10431;DHT22;5262;59.958;17.726;2024-01-06T03:22:04;-11.70;99.90
10431;DHT22;5262;59.958;17.726;2024-01-06T03:24:30;-11.70;99.90
10431;DHT22;5262;59.958;17.726;2024-01-06T03:26:56;-11.70;99.90
10431;DHT22;5262;59.958;17.726;2024-01-06T03:29:22;-11.90;99.90
10431;DHT22;5262;59.958;17.726;2024-01-06T03:31:48;-11.80;99.90
10431;DHT22;5262;59.958;17.726;2024-01-06T03:34:13;-11.90;99.90
10431;DHT22;5262;59.958;17.726;2024-01-06T03:36:40;-11.80;99.90
10431;DHT22;5262;59.958;17.726;2024-01-06T03:39:06;-11.80;99.90
10431;DHT22;5262;59.958;17.726;2024-01-06T03:41:31;-11.80;99.90
10431;DHT22;5262;59.958;17.726;2024-01-06T03:43:57;-11.80;99.90
10431;DHT22;5262;59.958;17.726;2024-01-06T03:46:23;-11.90;99.90
10431;DHT22;5262;59.958;17.726;2024-01-06T03:48:49;-11.80;99.90
10431;DHT22;5262;59.958;17.726;2024-01-06T03:51:15;-11.90;99.90
10431;DHT22;5262;59.958;17.726;2024-01-06T03:53:41;-11.90;99.90
10431;DHT22;5262;59.958;17.726;2024-01-06T03:56:07;-11.90;99.90
10431;DHT22;5262;59.958;17.726;2024-01-06T03:58:33;-11.90;99.90
10431;DHT22;5262;59.958;17.726;2024-01-06T04:00:59;-12.00;99.90
10431;DHT22;5262;59.958;17.726;2024-01-06T04:03:24;-12.00;99.90
10431;DHT22;5262;59.958;17.726;2024-01-06T04:05:50;-12.10;99.90
10431;DHT22;5262;59.958;17.726;2024-01-06T04:08:16;-12.10;99.90
10431;DHT22;5262;59.958;17.726;2024-01-06T04:10:43;-12.10;99.90
10431;DHT22;5262;59.958;17.726;2024-01-06T04:13:10;-12.10;99.90
10431;DHT22;5262;59.958;17.726;2024-01-06T04:15:36;-12.10;99.90
10431;DHT22;5262;59.958;17.726;2024-01-06T04:18:03;-12.10;99.90
10431;DHT22;5262;59.958;17.726;2024-01-06T04:20:29;-12.20;99.90
10431;DHT22;5262;59.958;17.726;2024-01-06T04:22:55;-12.20;99.90
10431;DHT22;5262;59.958;17.726;2024-01-06T04:25:21;-12.30;99.90
10431;DHT22;5262;59.958;17.726;2024-01-06T04:27:47;-12.30;99.90
10431;DHT22;5262;59.958;17.726;2024-01-06T04:30:14;-12.30;99.90
10431;DHT22;5262;59.958;17.726;2024-01-06T04:32:40;-12.30;99.90
10431;DHT22;5262;59.958;17.726;2024-01-06T04:35:06;-12.30;99.90
10431;DHT22;5262;59.958;17.726;2024-01-06T04:37:32;-12.30;99.90
10431;DHT22;5262;59.958;17.726;2024-01-06T04:39:58;-12.30;99.90
10431;DHT22;5262;59.958;17.726;2024-01-06T04:42:23;-12.30;99.90
10431;DHT22;5262;59.958;17.726;2024-01-06T04:44:50;-12.30;99.90
10431;DHT22;5262;59.958;17.726;2024-01-06T04:47:15;-12.40;99.90
10431;DHT22;5262;59.958;17.726;2024-01-06T04:49:41;-12.40;99.90
10431;DHT22;5262;59.958;17.726;2024-01-06T04:52:07;-12.50;99.90
10431;DHT22;5262;59.958;17.726;2024-01-06T04:54:32;-12.50;99.90
10431;DHT22;5262;59.958;17.726;2024-01-06T04:56:58;-12.50;99.90
10431;DHT22;5262;59.958;17.726;2024-01-06T04:59:24;-12.50;99.90
10431;DHT22;5262;59.958;17.726;2024-01-06T05:01:53;-12.60;99.90
10431;DHT22;5262;59.958;17.726;2024-01-06T05:04:19;-12.60;99.90
10431;DHT22;5262;59.958;17.726;2024-01-06T05:06:45;-12.60;99.90
10431;DHT22;5262;59.958;17.726;2024-01-06T05:09:10;-12.60;99.90
10431;DHT22;5262;59.958;17.726;2024-01-06T05:11:36;-12.70;99.90
10431;DHT22;5262;59.958;17.726;2024-01-06T05:14:02;-12.70;99.90
10431;DHT22;5262;59.958;17.726;2024-01-06T05:16:28;-12.80;99.90
10431;DHT22;5262;59.958;17.726;2024-01-06T05:18:53;-13.00;99.90
10431;DHT22;5262;59.958;17.726;2024-01-06T05:21:19;-13.00;99.90
10431;DHT22;5262;59.958;17.726;2024-01-06T05:23:45;-13.00;99.90
10431;DHT22;5262;59.958;17.726;2024-01-06T05:26:11;-13.00;99.90
10431;DHT22;5262;59.958;17.726;2024-01-06T05:28:38;-13.10;99.90
10431;DHT22;5262;59.958;17.726;2024-01-06T05:31:04;-13.10;99.90
10431;DHT22;5262;59.958;17.726;2024-01-06T05:33:29;-13.10;99.90
10431;DHT22;5262;59.958;17.726;2024-01-06T05:35:55;-13.20;99.90
10431;DHT22;5262;59.958;17.726;2024-01-06T05:38:20;-13.20;99.90
10431;DHT22;5262;59.958;17.726;2024-01-06T05:40:46;-13.20;99.90
10431;DHT22;5262;59.958;17.726;2024-01-06T05:43:11;-13.20;99.90
10431;DHT22;5262;59.958;17.726;2024-01-06T05:45:37;-13.30;99.90
10431;DHT22;5262;59.958;17.726;2024-01-06T05:48:08;-13.40;99.90
10431;DHT22;5262;59.958;17.726;2024-01-06T05:50:33;-13.40;99.90
10431;DHT22;5262;59.958;17.726;2024-01-06T05:52:59;-13.40;99.90
10431;DHT22;5262;59.958;17.726;2024-01-06T05:55:25;-13.50;99.90
10431;DHT22;5262;59.958;17.726;2024-01-06T05:57:50;-13.50;99.90
10431;DHT22;5262;59.958;17.726;2024-01-06T06:00:16;-13.60;99.90
10431;DHT22;5262;59.958;17.726;2024-01-06T06:02:42;-13.70;99.90
10431;DHT22;5262;59.958;17.726;2024-01-06T06:05:07;-13.80;99.90
10431;DHT22;5262;59.958;17.726;2024-01-06T06:07:33;-13.80;99.90
10431;DHT22;5262;59.958;17.726;2024-01-06T06:10:11;-13.90;99.90
10431;DHT22;5262;59.958;17.726;2024-01-06T06:12:37;-14.00;99.90
10431;DHT22;5262;59.958;17.726;2024-01-06T06:15:04;-14.00;99.90
10431;DHT22;5262;59.958;17.726;2024-01-06T06:17:30;-14.10;99.90
10431;DHT22;5262;59.958;17.726;2024-01-06T06:19:57;-14.10;99.90
10431;DHT22;5262;59.958;17.726;2024-01-06T06:22:23;-14.20;99.90
10431;DHT22;5262;59.958;17.726;2024-01-06T06:24:49;-14.20;99.90
10431;DHT22;5262;59.958;17.726;2024-01-06T06:27:14;-14.20;99.90
10431;DHT22;5262;59.958;17.726;2024-01-06T06:29:40;-14.20;99.90
10431;DHT22;5262;59.958;17.726;2024-01-06T06:32:06;-14.20;99.90
10431;DHT22;5262;59.958;17.726;2024-01-06T06:34:31;-14.30;99.90
10431;DHT22;5262;59.958;17.726;2024-01-06T06:36:57;-14.40;99.90
10431;DHT22;5262;59.958;17.726;2024-01-06T06:39:24;-14.40;99.90
10431;DHT22;5262;59.958;17.726;2024-01-06T06:41:49;-14.40;99.90
10431;DHT22;5262;59.958;17.726;2024-01-06T06:44:15;-14.40;99.90
10431;DHT22;5262;59.958;17.726;2024-01-06T06:46:41;-14.40;99.90
10431;DHT22;5262;59.958;17.726;2024-01-06T06:49:06;-14.60;99.90
10431;DHT22;5262;59.958;17.726;2024-01-06T06:51:32;-14.70;99.90
10431;DHT22;5262;59.958;17.726;2024-01-06T06:53:58;-14.60;99.90
10431;DHT22;5262;59.958;17.726;2024-01-06T06:56:24;-14.70;99.90
10431;DHT22;5262;59.958;17.726;2024-01-06T06:58:49;-14.70;99.90
10431;DHT22;5262;59.958;17.726;2024-01-06T07:01:15;-14.80;99.90
10431;DHT22;5262;59.958;17.726;2024-01-06T07:03:41;-14.80;99.90
10431;DHT22;5262;59.958;17.726;2024-01-06T07:06:07;-14.80;99.90
10431;DHT22;5262;59.958;17.726;2024-01-06T07:08:32;-14.80;99.90
10431;DHT22;5262;59.958;17.726;2024-01-06T07:10:58;-14.80;99.90
10431;DHT22;5262;59.958;17.726;2024-01-06T07:13:23;-14.90;99.90
10431;DHT22;5262;59.958;17.726;2024-01-06T07:15:49;-14.90;99.90
10431;DHT22;5262;59.958;17.726;2024-01-06T07:18:15;-14.90;99.90
10431;DHT22;5262;59.958;17.726;2024-01-06T07:20:41;-15.00;99.90
10431;DHT22;5262;59.958;17.726;2024-01-06T07:23:06;-15.10;99.90
10431;DHT22;5262;59.958;17.726;2024-01-06T07:25:32;-15.10;99.90
10431;DHT22;5262;59.958;17.726;2024-01-06T07:27:58;-15.10;99.90
10431;DHT22;5262;59.958;17.726;2024-01-06T07:30:23;-15.10;99.90
10431;DHT22;5262;59.958;17.726;2024-01-06T07:32:49;-15.10;99.90
10431;DHT22;5262;59.958;17.726;2024-01-06T07:35:16;-15.10;99.90
10431;DHT22;5262;59.958;17.726;2024-01-06T07:37:42;-15.10;99.90
10431;DHT22;5262;59.958;17.726;2024-01-06T07:40:08;-15.10;99.90
10431;DHT22;5262;59.958;17.726;2024-01-06T07:42:33;-15.20;99.90
10431;DHT22;5262;59.958;17.726;2024-01-06T07:44:59;-15.20;99.90
10431;DHT22;5262;59.958;17.726;2024-01-06T07:47:24;-15.10;99.90
10431;DHT22;5262;59.958;17.726;2024-01-06T07:49:50;-15.10;99.90
10431;DHT22;5262;59.958;17.726;2024-01-06T07:52:18;-15.10;99.90
10431;DHT22;5262;59.958;17.726;2024-01-06T07:54:43;-15.10;99.90
10431;DHT22;5262;59.958;17.726;2024-01-06T07:57:09;-15.00;99.90
10431;DHT22;5262;59.958;17.726;2024-01-06T07:59:36;-15.00;99.90
10431;DHT22;5262;59.958;17.726;2024-01-06T08:02:02;-15.10;99.90
10431;DHT22;5262;59.958;17.726;2024-01-06T08:04:27;-15.10;99.90
10431;DHT22;5262;59.958;17.726;2024-01-06T08:06:53;-15.10;99.90
10431;DHT22;5262;59.958;17.726;2024-01-06T08:09:19;-15.10;99.90
10431;DHT22;5262;59.958;17.726;2024-01-06T08:11:45;-15.10;99.90
10431;DHT22;5262;59.958;17.726;2024-01-06T08:14:12;-15.20;99.90
10431;DHT22;5262;59.958;17.726;2024-01-06T08:16:38;-15.20;99.90
10431;DHT22;5262;59.958;17.726;2024-01-06T08:19:04;-15.20;99.90
10431;DHT22;5262;59.958;17.726;2024-01-06T08:21:29;-15.20;99.90
10431;DHT22;5262;59.958;17.726;2024-01-06T08:23:55;-15.30;99.90
10431;DHT22;5262;59.958;17.726;2024-01-06T08:26:21;-15.30;99.90
10431;DHT22;5262;59.958;17.726;2024-01-06T08:28:47;-15.30;99.90
10431;DHT22;5262;59.958;17.726;2024-01-06T08:31:12;-15.40;99.90
10431;DHT22;5262;59.958;17.726;2024-01-06T08:33:38;-15.40;99.90
10431;DHT22;5262;59.958;17.726;2024-01-06T08:36:04;-15.40;99.90
10431;DHT22;5262;59.958;17.726;2024-01-06T08:38:30;-15.40;99.90
10431;DHT22;5262;59.958;17.726;2024-01-06T08:40:56;-15.40;99.90
10431;DHT22;5262;59.958;17.726;2024-01-06T08:43:22;-15.40;99.90
10431;DHT22;5262;59.958;17.726;2024-01-06T08:45:47;-15.40;99.90
10431;DHT22;5262;59.958;17.726;2024-01-06T08:48:13;-15.40;99.90
10431;DHT22;5262;59.958;17.726;2024-01-06T08:50:40;-15.50;99.90
10431;DHT22;5262;59.958;17.726;2024-01-06T08:53:06;-15.50;99.90
10431;DHT22;5262;59.958;17.726;2024-01-06T08:55:31;-15.60;99.90
10431;DHT22;5262;59.958;17.726;2024-01-06T08:57:57;-15.50;99.90
10431;DHT22;5262;59.958;17.726;2024-01-06T09:00:22;-15.50;99.90
10431;DHT22;5262;59.958;17.726;2024-01-06T09:02:48;-15.40;99.90
10431;DHT22;5262;59.958;17.726;2024-01-06T09:05:14;-15.40;99.90
10431;DHT22;5262;59.958;17.726;2024-01-06T09:07:40;-15.40;99.90
10431;DHT22;5262;59.958;17.726;2024-01-06T09:10:06;-15.20;99.90
10431;DHT22;5262;59.958;17.726;2024-01-06T09:12:32;-15.10;99.90
10431;DHT22;5262;59.958;17.726;2024-01-06T09:14:58;-15.10;99.90
10431;DHT22;5262;59.958;17.726;2024-01-06T09:17:23;-15.10;99.90
10431;DHT22;5262;59.958;17.726;2024-01-06T09:19:49;-15.00;99.90
10431;DHT22;5262;59.958;17.726;2024-01-06T09:22:14;-15.00;99.90
10431;DHT22;5262;59.958;17.726;2024-01-06T09:24:40;-15.00;99.90
10431;DHT22;5262;59.958;17.726;2024-01-06T09:27:06;-15.00;99.90
10431;DHT22;5262;59.958;17.726;2024-01-06T09:29:31;-15.00;99.90
10431;DHT22;5262;59.958;17.726;2024-01-06T09:31:57;-15.00;99.90
10431;DHT22;5262;59.958;17.726;2024-01-06T09:34:22;-15.10;99.90
10431;DHT22;5262;59.958;17.726;2024-01-06T09:36:48;-14.90;99.90
10431;DHT22;5262;59.958;17.726;2024-01-06T09:39:14;-14.80;99.90
10431;DHT22;5262;59.958;17.726;2024-01-06T09:41:39;-14.80;99.90
10431;DHT22;5262;59.958;17.726;2024-01-06T09:44:05;-14.70;99.90
10431;DHT22;5262;59.958;17.726;2024-01-06T09:46:31;-14.60;99.90
10431;DHT22;5262;59.958;17.726;2024-01-06T09:48:57;-14.50;99.90
10431;DHT22;5262;59.958;17.726;2024-01-06T09:51:24;-14.50;99.90
10431;DHT22;5262;59.958;17.726;2024-01-06T09:54:04;-14.40;99.90
10431;DHT22;5262;59.958;17.726;2024-01-06T09:56:34;-14.30;99.90
10431;DHT22;5262;59.958;17.726;2024-01-06T09:59:00;-14.20;99.90
10431;DHT22;5262;59.958;17.726;2024-01-06T10:01:26;-14.20;99.90
10431;DHT22;5262;59.958;17.726;2024-01-06T10:03:52;-14.10;99.90
10431;DHT22;5262;59.958;17.726;2024-01-06T10:06:18;-14.20;99.90
10431;DHT22;5262;59.958;17.726;2024-01-06T10:08:51;-14.20;99.90
10431;DHT22;5262;59.958;17.726;2024-01-06T10:11:27;-14.20;99.90
10431;DHT22;5262;59.958;17.726;2024-01-06T10:13:53;-14.20;99.90
10431;DHT22;5262;59.958;17.726;2024-01-06T10:16:19;-14.30;99.90
10431;DHT22;5262;59.958;17.726;2024-01-06T10:18:45;-14.30;99.90
10431;DHT22;5262;59.958;17.726;2024-01-06T10:21:12;-14.40;99.90
10431;DHT22;5262;59.958;17.726;2024-01-06T10:23:39;-14.50;99.90
10431;DHT22;5262;59.958;17.726;2024-01-06T10:26:04;-14.80;99.90
10431;DHT22;5262;59.958;17.726;2024-01-06T10:28:30;-14.90;99.90
10431;DHT22;5262;59.958;17.726;2024-01-06T10:30:57;-14.90;99.90
10431;DHT22;5262;59.958;17.726;2024-01-06T10:33:25;-14.80;99.90
10431;DHT22;5262;59.958;17.726;2024-01-06T10:35:51;-14.80;99.90
10431;DHT22;5262;59.958;17.726;2024-01-06T10:38:17;-14.70;99.90
10431;DHT22;5262;59.958;17.726;2024-01-06T10:41:00;-14.70;99.90
10431;DHT22;5262;59.958;17.726;2024-01-06T10:43:27;-14.60;99.90
10431;DHT22;5262;59.958;17.726;2024-01-06T10:45:56;-14.60;99.90
10431;DHT22;5262;59.958;17.726;2024-01-06T10:48:24;-14.70;99.90
10431;DHT22;5262;59.958;17.726;2024-01-06T10:50:51;-14.60;99.90
10431;DHT22;5262;59.958;17.726;2024-01-06T10:53:17;-14.40;99.90
10431;DHT22;5262;59.958;17.726;2024-01-06T10:55:45;-14.10;99.90
10431;DHT22;5262;59.958;17.726;2024-01-06T10:58:12;-13.90;99.90
10431;DHT22;5262;59.958;17.726;2024-01-06T11:00:41;-13.70;99.90
10431;DHT22;5262;59.958;17.726;2024-01-06T11:03:07;-13.60;99.90
10431;DHT22;5262;59.958;17.726;2024-01-06T11:05:35;-13.50;99.90
10431;DHT22;5262;59.958;17.726;2024-01-06T11:08:02;-13.30;99.90
10431;DHT22;5262;59.958;17.726;2024-01-06T11:10:28;-13.20;99.90
10431;DHT22;5262;59.958;17.726;2024-01-06T11:13:14;-13.10;99.90
10431;DHT22;5262;59.958;17.726;2024-01-06T11:15:48;-13.10;99.90
10431;DHT22;5262;59.958;17.726;2024-01-06T11:18:52;-13.10;99.90
10431;DHT22;5262;59.958;17.726;2024-01-06T11:24:13;-13.00;99.90
10431;DHT22;5262;59.958;17.726;2024-01-06T11:26:43;-13.10;99.90
10431;DHT22;5262;59.958;17.726;2024-01-06T11:29:09;-13.20;99.90
10431;DHT22;5262;59.958;17.726;2024-01-06T11:31:37;-13.20;99.90
10431;DHT22;5262;59.958;17.726;2024-01-06T11:34:16;-13.20;99.90
10431;DHT22;5262;59.958;17.726;2024-01-06T11:36:45;-13.30;99.90
10431;DHT22;5262;59.958;17.726;2024-01-06T11:39:34;-13.30;99.90
10431;DHT22;5262;59.958;17.726;2024-01-06T11:42:01;-13.30;99.90
10431;DHT22;5262;59.958;17.726;2024-01-06T11:44:28;-13.30;99.90
10431;DHT22;5262;59.958;17.726;2024-01-06T11:46:57;-13.30;99.90
10431;DHT22;5262;59.958;17.726;2024-01-06T11:49:26;-13.20;99.90
10431;DHT22;5262;59.958;17.726;2024-01-06T11:51:53;-13.20;99.90
10431;DHT22;5262;59.958;17.726;2024-01-06T11:54:21;-13.10;99.90
10431;DHT22;5262;59.958;17.726;2024-01-06T11:56:46;-13.00;99.90
10431;DHT22;5262;59.958;17.726;2024-01-06T11:59:12;-12.90;99.90
10431;DHT22;5262;59.958;17.726;2024-01-06T12:01:39;-12.90;99.90
10431;DHT22;5262;59.958;17.726;2024-01-06T12:04:05;-12.80;99.90
10431;DHT22;5262;59.958;17.726;2024-01-06T12:06:32;-12.80;99.90
10431;DHT22;5262;59.958;17.726;2024-01-06T12:09:08;-12.80;99.90
10431;DHT22;5262;59.958;17.726;2024-01-06T12:11:34;-12.80;99.90
10431;DHT22;5262;59.958;17.726;2024-01-06T12:14:00;-12.90;99.90
10431;DHT22;5262;59.958;17.726;2024-01-06T12:16:26;-12.90;99.90
10431;DHT22;5262;59.958;17.726;2024-01-06T12:18:58;-13.00;99.90
10431;DHT22;5262;59.958;17.726;2024-01-06T12:21:26;-13.10;99.90
10431;DHT22;5262;59.958;17.726;2024-01-06T12:23:52;-13.20;99.90
10431;DHT22;5262;59.958;17.726;2024-01-06T12:26:18;-13.30;99.90
10431;DHT22;5262;59.958;17.726;2024-01-06T12:28:48;-13.40;99.90
10431;DHT22;5262;59.958;17.726;2024-01-06T12:31:14;-13.50;99.90
10431;DHT22;5262;59.958;17.726;2024-01-06T12:33:40;-13.60;99.90
10431;DHT22;5262;59.958;17.726;2024-01-06T12:36:07;-13.70;99.90
10431;DHT22;5262;59.958;17.726;2024-01-06T12:38:34;-13.80;99.90
10431;DHT22;5262;59.958;17.726;2024-01-06T12:41:00;-13.90;99.90
10431;DHT22;5262;59.958;17.726;2024-01-06T12:43:25;-13.90;99.90
10431;DHT22;5262;59.958;17.726;2024-01-06T12:45:52;-14.00;99.90
10431;DHT22;5262;59.958;17.726;2024-01-06T12:48:18;-14.10;99.90
10431;DHT22;5262;59.958;17.726;2024-01-06T12:50:44;-14.10;99.90
10431;DHT22;5262;59.958;17.726;2024-01-06T12:53:10;-14.20;99.90
10431;DHT22;5262;59.958;17.726;2024-01-06T12:55:37;-14.30;99.90
10431;DHT22;5262;59.958;17.726;2024-01-06T12:58:04;-14.30;99.90
10431;DHT22;5262;59.958;17.726;2024-01-06T13:00:30;-14.40;99.90
10431;DHT22;5262;59.958;17.726;2024-01-06T13:02:56;-14.50;99.90
10431;DHT22;5262;59.958;17.726;2024-01-06T13:05:22;-14.50;99.90
10431;DHT22;5262;59.958;17.726;2024-01-06T13:07:48;-14.50;99.90
10431;DHT22;5262;59.958;17.726;2024-01-06T13:10:15;-14.60;99.90
10431;DHT22;5262;59.958;17.726;2024-01-06T13:12:41;-14.60;99.90
10431;DHT22;5262;59.958;17.726;2024-01-06T13:15:07;-14.70;99.90
10431;DHT22;5262;59.958;17.726;2024-01-06T13:17:37;-14.70;99.90
10431;DHT22;5262;59.958;17.726;2024-01-06T13:20:06;-14.70;99.90
10431;DHT22;5262;59.958;17.726;2024-01-06T13:22:33;-14.80;99.90
10431;DHT22;5262;59.958;17.726;2024-01-06T13:24:59;-14.80;99.90
10431;DHT22;5262;59.958;17.726;2024-01-06T13:27:25;-14.90;99.90
10431;DHT22;5262;59.958;17.726;2024-01-06T13:29:53;-14.90;99.90
10431;DHT22;5262;59.958;17.726;2024-01-06T13:32:19;-14.90;99.90
10431;DHT22;5262;59.958;17.726;2024-01-06T13:34:45;-15.00;99.90
10431;DHT22;5262;59.958;17.726;2024-01-06T13:37:10;-15.00;99.90
10431;DHT22;5262;59.958;17.726;2024-01-06T13:39:36;-15.10;99.90
10431;DHT22;5262;59.958;17.726;2024-01-06T13:42:02;-15.10;99.90
10431;DHT22;5262;59.958;17.726;2024-01-06T13:44:30;-15.10;99.90
10431;DHT22;5262;59.958;17.726;2024-01-06T13:46:56;-15.10;99.90
10431;DHT22;5262;59.958;17.726;2024-01-06T13:49:22;-15.10;99.90
10431;DHT22;5262;59.958;17.726;2024-01-06T13:51:49;-15.10;99.90
10431;DHT22;5262;59.958;17.726;2024-01-06T13:54:15;-15.20;99.90
10431;DHT22;5262;59.958;17.726;2024-01-06T13:56:40;-15.20;99.90
10431;DHT22;5262;59.958;17.726;2024-01-06T13:59:06;-15.20;99.90
10431;DHT22;5262;59.958;17.726;2024-01-06T14:01:32;-15.20;99.90
10431;DHT22;5262;59.958;17.726;2024-01-06T14:03:58;-15.20;99.90
10431;DHT22;5262;59.958;17.726;2024-01-06T14:06:27;-15.20;99.90
10431;DHT22;5262;59.958;17.726;2024-01-06T14:08:57;-15.20;99.90
10431;DHT22;5262;59.958;17.726;2024-01-06T14:11:22;-15.30;99.90
10431;DHT22;5262;59.958;17.726;2024-01-06T14:13:48;-15.30;99.90
10431;DHT22;5262;59.958;17.726;2024-01-06T14:16:15;-15.30;99.90
10431;DHT22;5262;59.958;17.726;2024-01-06T14:18:41;-15.30;99.90
10431;DHT22;5262;59.958;17.726;2024-01-06T14:21:09;-15.30;99.90
10431;DHT22;5262;59.958;17.726;2024-01-06T14:23:35;-15.40;99.90
10431;DHT22;5262;59.958;17.726;2024-01-06T14:26:01;-15.40;99.90
10431;DHT22;5262;59.958;17.726;2024-01-06T14:28:27;-15.40;99.90
10431;DHT22;5262;59.958;17.726;2024-01-06T14:30:53;-15.40;99.90
10431;DHT22;5262;59.958;17.726;2024-01-06T14:33:18;-15.50;99.90
10431;DHT22;5262;59.958;17.726;2024-01-06T14:35:45;-15.50;99.90
10431;DHT22;5262;59.958;17.726;2024-01-06T14:38:11;-15.50;99.90
10431;DHT22;5262;59.958;17.726;2024-01-06T14:40:37;-15.60;99.90
10431;DHT22;5262;59.958;17.726;2024-01-06T14:43:03;-15.60;99.90
10431;DHT22;5262;59.958;17.726;2024-01-06T14:45:33;-15.50;99.90
10431;DHT22;5262;59.958;17.726;2024-01-06T14:47:59;-15.50;99.90
10431;DHT22;5262;59.958;17.726;2024-01-06T14:50:27;-15.50;99.90
10431;DHT22;5262;59.958;17.726;2024-01-06T14:52:53;-15.50;99.90
10431;DHT22;5262;59.958;17.726;2024-01-06T14:55:19;-15.50;99.90
10431;DHT22;5262;59.958;17.726;2024-01-06T14:57:44;-15.50;99.90
10431;DHT22;5262;59.958;17.726;2024-01-06T15:00:10;-15.40;99.90
10431;DHT22;5262;59.958;17.726;2024-01-06T15:02:37;-15.40;99.90
10431;DHT22;5262;59.958;17.726;2024-01-06T15:05:03;-15.50;99.90
10431;DHT22;5262;59.958;17.726;2024-01-06T15:07:30;-15.40;99.90
10431;DHT22;5262;59.958;17.726;2024-01-06T15:09:58;-15.40;99.90
10431;DHT22;5262;59.958;17.726;2024-01-06T15:12:24;-15.40;99.90
10431;DHT22;5262;59.958;17.726;2024-01-06T15:14:50;-15.40;99.90